createdAt,value
2017-10-12T00:01:55.910Z,93.10
2017-10-12T00:04:24.174Z,93.30
2017-10-12T00:06:52.422Z,93.50
2017-10-12T00:09:20.662Z,93.40
2017-10-12T00:11:49.754Z,93.10
2017-10-12T00:14:18.767Z,93.00
2017-10-12T00:16:47.004Z,93.00
2017-10-12T00:19:15.267Z,93.20
2017-10-12T00:21:43.879Z,93.10
2017-10-12T00:24:12.873Z,94.10
2017-10-12T00:26:41.910Z,93.70
2017-10-12T00:29:10.150Z,93.70
2017-10-12T00:31:39.161Z,93.00
2017-10-12T00:34:07.814Z,93.00
2017-10-12T00:36:36.056Z,93.00
2017-10-12T00:39:04.296Z,93.80
2017-10-12T00:41:32.553Z,93.40
2017-10-12T00:44:01.567Z,93.40
2017-10-12T00:46:29.813Z,93.40
2017-10-12T00:48:58.846Z,93.60
2017-10-12T00:51:27.085Z,93.60
2017-10-12T00:53:55.330Z,94.10
2017-10-12T00:56:23.998Z,94.30
2017-10-12T00:58:52.245Z,94.70
2017-10-12T01:01:20.478Z,94.40
2017-10-12T01:03:48.746Z,94.60
2017-10-12T01:06:17.124Z,94.20
2017-10-12T01:08:45.364Z,94.00
2017-10-12T01:11:13.637Z,94.40
2017-10-12T01:13:41.886Z,94.60
2017-10-12T01:16:10.138Z,94.90
2017-10-12T01:18:38.797Z,94.50
2017-10-12T01:21:07.042Z,94.50
2017-10-12T01:23:35.520Z,95.10
2017-10-12T01:26:04.546Z,95.00
2017-10-12T01:28:32.786Z,94.90
2017-10-12T01:31:01.794Z,94.80
2017-10-12T01:33:30.066Z,94.80
2017-10-12T01:35:58.315Z,95.10
2017-10-12T01:38:26.568Z,95.30
2017-10-12T01:40:55.131Z,95.00
2017-10-12T01:43:23.362Z,95.00
2017-10-12T01:45:51.610Z,95.10
2017-10-12T01:48:31.722Z,95.40
2017-10-12T01:50:59.973Z,95.10
2017-10-12T01:53:28.982Z,95.30
2017-10-12T01:55:57.690Z,95.30
2017-10-12T01:58:25.943Z,95.60
2017-10-12T02:00:54.946Z,95.40
2017-10-12T02:03:23.230Z,95.40
2017-10-12T02:05:51.526Z,95.60
2017-10-12T02:08:19.775Z,95.30
2017-10-12T02:10:48.048Z,97.40
2017-10-12T02:13:16.304Z,96.10
2017-10-12T02:15:45.326Z,95.90
2017-10-12T02:18:13.694Z,95.90
2017-10-12T02:20:41.946Z,96.60
2017-10-12T02:23:10.193Z,96.70
2017-10-12T02:25:38.571Z,96.20
2017-10-12T02:28:06.827Z,96.40
2017-10-12T02:30:35.073Z,95.90
2017-10-12T02:33:03.359Z,96.00
2017-10-12T02:35:31.686Z,95.70
2017-10-12T02:37:59.947Z,96.40
2017-10-12T02:40:28.825Z,96.20
2017-10-12T02:42:57.065Z,96.10
2017-10-12T02:45:26.078Z,96.10
2017-10-12T02:47:54.354Z,96.10
2017-10-12T02:50:22.610Z,96.00
2017-10-12T02:52:51.630Z,96.70
2017-10-12T02:55:19.906Z,96.70
2017-10-12T02:57:48.154Z,96.50
2017-10-12T03:00:16.402Z,96.40
2017-10-12T03:02:44.734Z,96.50
2017-10-12T03:05:12.977Z,96.20
2017-10-12T03:07:41.241Z,96.20
2017-10-12T03:10:09.518Z,96.10
2017-10-12T03:12:37.771Z,96.30
2017-10-12T03:15:06.018Z,96.40
2017-10-12T03:17:34.295Z,96.20
2017-10-12T03:20:02.542Z,96.40
2017-10-12T03:22:31.566Z,96.40
2017-10-12T03:25:00.268Z,96.40
2017-10-12T03:27:28.914Z,96.40
2017-10-12T03:29:57.935Z,96.80
2017-10-12T03:32:26.206Z,96.80
2017-10-12T03:34:54.463Z,96.60
2017-10-12T03:37:22.705Z,96.60
2017-10-12T03:39:50.982Z,97.10
2017-10-12T03:42:19.349Z,96.70
2017-10-12T03:44:47.581Z,97.00
2017-10-12T03:47:16.255Z,96.90
2017-10-12T03:49:45.269Z,97.30
2017-10-12T03:52:13.522Z,97.30
2017-10-12T03:54:41.798Z,97.30
2017-10-12T03:57:10.050Z,97.10
2017-10-12T03:59:38.289Z,97.00
2017-10-12T04:02:06.574Z,97.80
2017-10-12T04:04:34.814Z,97.10
2017-10-12T04:07:03.285Z,97.20
2017-10-12T04:09:32.373Z,97.00
2017-10-12T04:12:00.619Z,97.00
2017-10-12T04:14:29.626Z,97.30
2017-10-12T04:16:57.898Z,97.30
2017-10-12T04:19:26.146Z,97.20
2017-10-12T04:21:54.399Z,97.90
2017-10-12T04:24:22.669Z,97.50
2017-10-12T04:26:50.914Z,97.80
2017-10-12T04:29:19.390Z,97.40
2017-10-12T04:31:48.043Z,97.40
2017-10-12T04:34:16.279Z,96.90
2017-10-12T04:36:44.522Z,97.50
2017-10-12T04:41:47.809Z,97.70
2017-10-12T04:44:16.066Z,97.40
2017-10-12T04:46:44.391Z,97.50
2017-10-12T04:49:12.665Z,97.70
2017-10-12T04:51:40.970Z,98.20
2017-10-12T04:54:09.209Z,98.10
2017-10-12T04:56:37.460Z,98.10
2017-10-12T04:59:05.726Z,97.10
2017-10-12T05:01:33.965Z,96.30
2017-10-12T05:04:02.214Z,96.20
2017-10-12T05:06:30.478Z,95.80
2017-10-12T05:08:58.722Z,95.80
2017-10-12T05:11:26.962Z,95.70
2017-10-12T05:13:55.282Z,95.60
2017-10-12T05:16:23.528Z,95.40
2017-10-12T05:18:51.770Z,95.70
2017-10-12T05:21:20.058Z,95.60
2017-10-12T05:23:48.296Z,95.60
2017-10-12T05:26:16.579Z,95.50
2017-10-12T05:28:44.822Z,95.50
2017-10-12T05:31:14.318Z,95.30
2017-10-12T05:33:43.319Z,95.40
2017-10-12T05:36:12.609Z,94.90
2017-10-12T05:38:41.614Z,94.40
2017-10-12T05:41:10.622Z,93.60
2017-10-12T05:43:38.895Z,93.60
2017-10-12T05:46:07.141Z,93.10
2017-10-12T05:48:35.382Z,92.90
2017-10-12T05:51:03.661Z,92.50
2017-10-12T05:53:31.909Z,92.90
2017-10-12T05:56:00.147Z,92.90
2017-10-12T05:58:28.700Z,92.70
2017-10-12T06:00:56.944Z,92.00
2017-10-12T06:03:25.182Z,91.80
2017-10-12T06:05:53.446Z,91.50
2017-10-12T06:08:21.690Z,91.60
2017-10-12T06:10:49.935Z,91.50
2017-10-12T06:13:19.736Z,91.60
2017-10-12T06:15:47.976Z,91.60
2017-10-12T06:18:16.213Z,91.50
2017-10-12T06:20:44.541Z,91.50
2017-10-12T06:23:12.786Z,91.20
2017-10-12T06:25:41.030Z,91.00
2017-10-12T06:28:10.059Z,91.60
2017-10-12T06:30:38.302Z,91.60
2017-10-12T06:33:06.878Z,91.20
2017-10-12T06:35:35.910Z,91.40
2017-10-12T06:38:04.150Z,91.30
2017-10-12T06:40:33.157Z,91.40
2017-10-12T06:43:01.753Z,91.40
2017-10-12T06:45:29.993Z,91.40
2017-10-12T06:47:58.997Z,91.50
2017-10-12T06:50:28.030Z,91.20
2017-10-12T06:52:56.270Z,91.20
2017-10-12T06:55:25.319Z,90.90
2017-10-12T06:57:53.562Z,90.90
2017-10-12T07:00:21.979Z,90.80
2017-10-12T07:02:50.209Z,90.70
2017-10-12T07:05:18.870Z,90.70
2017-10-12T07:07:47.875Z,90.90
2017-10-12T07:10:16.886Z,91.00
2017-10-12T07:12:45.149Z,91.00
2017-10-12T07:15:14.162Z,91.00
2017-10-12T07:17:42.407Z,91.00
2017-10-12T07:20:10.673Z,91.10
2017-10-12T07:22:38.906Z,91.30
2017-10-12T07:25:07.160Z,90.50
2017-10-12T07:27:35.991Z,90.50
2017-10-12T07:30:04.228Z,90.10
2017-10-12T07:32:32.466Z,89.90
2017-10-12T07:35:00.984Z,89.60
2017-10-12T07:37:29.223Z,89.30
2017-10-12T07:39:57.462Z,90.00
2017-10-12T07:42:25.726Z,90.10
2017-10-12T07:44:53.974Z,90.30
2017-10-12T07:47:22.981Z,90.20
2017-10-12T07:49:51.946Z,90.20
2017-10-12T07:52:20.193Z,90.00
2017-10-12T07:54:48.441Z,89.20
2017-10-12T07:57:16.706Z,89.10
2017-10-12T07:59:44.962Z,89.10
2017-10-12T08:02:13.975Z,88.50
2017-10-12T08:04:42.236Z,88.50
2017-10-12T08:07:10.474Z,89.20
2017-10-12T08:09:38.761Z,90.00
2017-10-12T08:12:07.102Z,90.30
2017-10-12T08:14:35.340Z,90.20
2017-10-12T08:17:04.345Z,88.40
2017-10-12T08:19:32.609Z,88.30
2017-10-12T08:22:01.623Z,87.70
2017-10-12T08:24:29.862Z,87.70
2017-10-12T08:26:58.126Z,86.80
2017-10-12T08:29:26.370Z,87.60
2017-10-12T08:31:54.610Z,87.30
2017-10-12T08:34:23.819Z,87.00
2017-10-12T08:36:52.953Z,86.80
2017-10-12T08:39:21.206Z,86.80
2017-10-12T08:41:50.002Z,87.40
2017-10-12T08:44:18.370Z,87.30
2017-10-12T08:46:46.613Z,87.10
2017-10-12T08:49:14.884Z,85.70
2017-10-12T08:51:43.130Z,85.40
2017-10-12T08:54:11.374Z,85.60
2017-10-12T08:56:40.291Z,86.40
2017-10-12T08:59:08.541Z,85.90
2017-10-12T09:01:36.779Z,85.10
2017-10-12T09:04:05.090Z,85.20
2017-10-12T09:06:33.330Z,85.30
2017-10-12T09:09:01.570Z,85.40
2017-10-12T09:11:29.838Z,85.90
2017-10-12T09:13:58.078Z,86.80
2017-10-12T09:16:27.087Z,86.30
2017-10-12T09:18:55.698Z,86.30
2017-10-12T09:21:23.937Z,85.40
2017-10-12T09:23:52.944Z,84.50
2017-10-12T09:26:23.694Z,84.40
2017-10-12T09:28:51.937Z,83.60
2017-10-12T09:31:20.182Z,83.50
2017-10-12T09:33:48.451Z,81.80
2017-10-12T09:36:16.690Z,82.30
2017-10-12T09:38:45.146Z,82.60
2017-10-12T09:41:13.502Z,83.30
2017-10-12T09:43:41.766Z,82.50
2017-10-12T09:46:10.766Z,83.00
2017-10-12T09:48:39.042Z,83.00
2017-10-12T09:51:07.286Z,81.30
2017-10-12T09:53:35.528Z,82.20
2017-10-12T09:56:04.714Z,80.70
2017-10-12T09:58:32.962Z,80.70
2017-10-12T10:01:01.195Z,81.00
2017-10-12T10:03:29.901Z,77.90
2017-10-12T10:05:58.140Z,78.90
2017-10-12T10:08:27.158Z,77.90
2017-10-12T10:10:55.425Z,77.70
2017-10-12T10:13:23.671Z,79.10
2017-10-12T10:15:51.908Z,78.20
2017-10-12T10:18:20.242Z,75.00
2017-10-12T10:20:48.486Z,72.00
2017-10-12T10:23:16.730Z,66.80
2017-10-12T10:25:45.313Z,65.10
2017-10-12T10:28:13.589Z,65.80
2017-10-12T10:30:41.821Z,65.20
2017-10-12T10:33:10.087Z,65.90
2017-10-12T10:35:38.335Z,64.90
2017-10-12T10:38:06.579Z,62.60
2017-10-12T10:40:35.038Z,59.40
2017-10-12T10:43:04.046Z,59.60
2017-10-12T10:45:32.293Z,59.50
2017-10-12T10:48:00.809Z,59.00
2017-10-12T10:50:29.120Z,59.40
2017-10-12T10:52:57.369Z,60.20
2017-10-12T10:55:25.906Z,59.60
2017-10-12T10:57:54.129Z,60.10
2017-10-12T11:00:22.377Z,60.40
2017-10-12T11:02:51.571Z,61.60
2017-10-12T11:05:20.574Z,62.50
2017-10-12T11:07:49.578Z,63.00
2017-10-12T11:10:17.895Z,62.90
2017-10-12T11:12:46.135Z,64.30
2017-10-12T11:15:14.564Z,63.40
2017-10-12T11:17:42.811Z,61.40
2017-10-12T11:20:11.051Z,58.90
2017-10-12T11:22:39.293Z,61.30
2017-10-12T11:25:07.578Z,58.90
2017-10-12T11:27:35.840Z,60.00
2017-10-12T11:30:04.082Z,59.00
2017-10-12T11:32:32.907Z,58.10
2017-10-12T11:35:01.156Z,58.10
2017-10-12T11:37:29.401Z,55.90
2017-10-12T11:39:57.666Z,54.70
2017-10-12T11:42:26.077Z,51.80
2017-10-12T11:44:54.335Z,52.10
2017-10-12T11:47:23.367Z,50.60
2017-10-12T11:49:51.657Z,50.40
2017-10-12T11:52:20.978Z,50.20
2017-10-12T11:54:49.306Z,47.80
2017-10-12T11:57:17.561Z,49.00
2017-10-12T11:59:45.802Z,49.50
2017-10-12T12:02:14.058Z,49.40
2017-10-12T12:04:42.676Z,50.10
2017-10-12T12:07:10.914Z,50.00
2017-10-12T12:09:39.184Z,49.10
2017-10-12T12:12:07.426Z,49.90
2017-10-12T12:14:36.439Z,50.20
2017-10-12T12:17:05.152Z,50.20
2017-10-12T12:19:33.402Z,51.00
2017-10-12T12:22:01.639Z,51.30
2017-10-12T12:24:29.902Z,50.20
2017-10-12T12:26:58.149Z,49.70
2017-10-12T12:29:26.382Z,49.70
2017-10-12T12:31:55.425Z,49.60
2017-10-12T12:34:23.681Z,49.60
2017-10-12T12:36:51.930Z,48.50
2017-10-12T12:39:20.574Z,49.30
2017-10-12T12:41:48.854Z,48.40
2017-10-12T12:44:17.098Z,49.30
2017-10-12T12:46:45.374Z,48.60
2017-10-12T12:49:13.618Z,49.40
2017-10-12T12:51:41.881Z,51.50
2017-10-12T12:54:10.147Z,49.80
2017-10-12T12:56:38.394Z,48.40
2017-10-12T12:59:06.637Z,48.70
2017-10-12T13:01:36.052Z,46.00
2017-10-12T13:04:04.275Z,46.00
2017-10-12T13:06:32.535Z,46.50
2017-10-12T13:09:00.795Z,45.30
2017-10-12T13:11:29.035Z,45.10
2017-10-12T13:13:57.278Z,44.10
2017-10-12T13:16:25.612Z,45.50
2017-10-12T13:18:54.611Z,43.10
2017-10-12T13:21:22.850Z,43.00
2017-10-12T13:23:51.474Z,43.60
2017-10-12T13:26:19.718Z,44.00
2017-10-12T13:28:48.726Z,44.70
2017-10-12T13:31:16.998Z,44.60
2017-10-12T13:33:45.238Z,43.50
2017-10-12T13:36:13.496Z,44.70
2017-10-12T13:38:41.927Z,44.40
2017-10-12T13:41:12.114Z,46.90
2017-10-12T13:43:40.498Z,46.90
2017-10-12T13:46:08.824Z,47.40
2017-10-12T13:48:37.282Z,48.30
2017-10-12T13:51:06.296Z,47.30
2017-10-12T13:53:34.562Z,47.20
2017-10-12T13:56:02.819Z,47.20
2017-10-12T13:58:31.082Z,47.50
2017-10-12T14:00:59.476Z,47.30
2017-10-12T14:03:27.730Z,47.30
2017-10-12T14:05:55.982Z,47.60
2017-10-12T14:08:24.676Z,48.20
2017-10-12T14:10:52.918Z,48.80
2017-10-12T14:13:21.190Z,47.70
2017-10-12T14:15:49.454Z,46.70
2017-10-12T14:18:18.613Z,47.50
2017-10-12T14:20:46.830Z,47.40
2017-10-12T14:23:15.866Z,47.40
2017-10-12T14:25:44.122Z,47.40
2017-10-12T14:28:12.378Z,47.90
2017-10-12T14:30:41.477Z,48.50
2017-10-12T14:33:09.727Z,48.60
2017-10-12T14:35:38.007Z,49.00
2017-10-12T14:38:06.747Z,49.20
2017-10-12T14:40:35.005Z,50.10
2017-10-12T14:43:03.441Z,49.60
2017-10-12T14:45:31.713Z,49.90
2017-10-12T14:47:59.979Z,49.70
2017-10-12T14:50:28.273Z,49.90
2017-10-12T14:52:56.718Z,50.30
2017-10-12T14:55:25.220Z,50.40
2017-10-12T14:57:53.446Z,50.90
2017-10-12T15:00:22.482Z,50.60
2017-10-12T15:02:50.805Z,50.50
2017-10-12T15:05:19.835Z,51.00
2017-10-12T15:07:48.139Z,50.90
2017-10-12T15:10:16.380Z,50.80
2017-10-12T15:12:44.624Z,51.40
2017-10-12T15:15:13.378Z,51.20
2017-10-12T15:17:41.758Z,51.40
2017-10-12T15:20:10.977Z,50.90
2017-10-12T15:22:39.377Z,50.60
2017-10-12T15:25:08.383Z,51.10
2017-10-12T15:27:36.630Z,51.30
2017-10-12T15:30:04.890Z,51.70
2017-10-12T15:32:33.206Z,52.40
2017-10-12T15:35:02.211Z,52.80
2017-10-12T15:37:30.713Z,52.80
2017-10-12T15:39:58.966Z,53.30
2017-10-12T15:42:30.076Z,53.80
2017-10-12T15:44:58.596Z,53.70
2017-10-12T15:47:28.365Z,54.00
2017-10-12T15:50:00.756Z,54.50
2017-10-12T15:52:29.102Z,54.60
2017-10-12T15:54:57.490Z,55.50
2017-10-12T15:57:26.050Z,55.10
2017-10-12T15:59:55.560Z,55.40
2017-10-12T16:02:25.394Z,56.00
2017-10-12T16:04:54.181Z,56.30
2017-10-12T16:07:23.191Z,56.70
2017-10-12T16:10:00.788Z,56.60
2017-10-12T16:12:30.985Z,57.50
2017-10-12T16:14:59.998Z,57.40
2017-10-12T16:17:28.679Z,57.60
2017-10-12T16:19:59.119Z,57.60
2017-10-12T16:27:25.462Z,58.30
2017-10-12T16:29:54.039Z,59.10
2017-10-12T16:32:22.271Z,59.10
2017-10-12T16:34:51.523Z,59.70
2017-10-12T16:37:20.099Z,59.70
2017-10-12T16:39:49.466Z,60.10
2017-10-12T16:42:17.959Z,60.40
2017-10-12T16:44:46.449Z,61.40
2017-10-12T16:47:18.882Z,61.90
2017-10-12T16:49:47.485Z,61.90
2017-10-12T16:52:16.604Z,62.00
2017-10-12T16:54:45.445Z,62.20
2017-10-12T16:57:13.758Z,62.80
2017-10-12T16:59:42.993Z,63.50
2017-10-12T17:02:11.382Z,63.20
2017-10-12T17:04:39.797Z,63.70
2017-10-12T17:07:09.976Z,62.90
2017-10-12T17:09:38.428Z,62.80
2017-10-12T17:12:06.778Z,64.20
2017-10-12T17:14:35.790Z,64.50
2017-10-12T17:17:04.122Z,64.30
2017-10-12T17:19:32.582Z,64.20
2017-10-12T17:22:00.884Z,64.50
2017-10-12T17:24:29.242Z,65.70
2017-10-12T17:26:57.648Z,64.20
2017-10-12T17:29:26.651Z,65.90
2017-10-12T17:31:55.918Z,65.80
2017-10-12T17:34:24.803Z,65.70
2017-10-12T17:36:54.205Z,66.10
2017-10-12T17:39:22.758Z,67.50
2017-10-12T17:41:52.295Z,65.90
2017-10-12T17:44:22.720Z,67.10
2017-10-12T17:46:51.303Z,67.50
2017-10-12T17:49:26.963Z,67.50
2017-10-12T17:51:55.202Z,68.80
2017-10-12T17:54:39.512Z,69.30
2017-10-12T17:56:54.922Z,69.00
2017-10-12T17:59:24.370Z,68.90
2017-10-12T18:01:52.786Z,69.10
2017-10-12T18:06:51.044Z,70.50
2017-10-12T18:09:19.435Z,69.70
2017-10-12T18:14:16.844Z,69.60
2017-10-12T18:16:45.096Z,69.60
2017-10-12T18:19:14.355Z,70.40
2017-10-12T18:21:42.593Z,70.40
2017-10-12T18:24:11.855Z,71.00
2017-10-12T18:26:42.098Z,72.30
2017-10-12T18:29:13.318Z,71.80
2017-10-12T18:31:41.597Z,71.80
2017-10-12T18:34:10.930Z,71.20
2017-10-12T18:36:39.948Z,72.60
2017-10-12T18:39:08.720Z,73.40
2017-10-12T18:41:37.535Z,73.90
2017-10-12T18:44:05.954Z,75.60
2017-10-12T18:46:34.323Z,74.80
2017-10-12T18:49:02.928Z,74.90
2017-10-12T18:51:31.686Z,75.20
2017-10-12T18:54:00.079Z,75.00
2017-10-12T18:56:28.511Z,75.10
2017-10-12T18:58:57.744Z,75.40
2017-10-12T19:01:26.126Z,75.40
2017-10-12T19:03:54.726Z,75.90
2017-10-12T19:06:23.839Z,75.20
2017-10-12T19:08:54.039Z,75.30
2017-10-12T19:11:22.455Z,75.40
2017-10-12T19:13:52.024Z,76.80
2017-10-12T19:16:20.510Z,76.90
2017-10-12T19:18:49.028Z,76.80
2017-10-12T19:21:17.514Z,77.30
2017-10-12T19:23:46.622Z,75.90
2017-10-12T19:26:16.174Z,76.00
2017-10-12T19:28:44.552Z,77.10
2017-10-12T19:31:12.816Z,77.60
2017-10-12T19:33:41.296Z,77.20
2017-10-12T19:36:09.620Z,78.20
2017-10-12T19:38:39.083Z,79.00
2017-10-12T19:43:37.807Z,78.50
2017-10-12T19:46:06.195Z,78.40
2017-10-12T19:48:34.806Z,79.40
2017-10-12T19:53:31.621Z,79.80
2017-10-12T19:56:00.024Z,77.20
2017-10-12T19:58:28.384Z,77.40
2017-10-12T20:00:56.648Z,78.40
2017-10-12T20:03:26.095Z,80.40
2017-10-12T20:05:54.434Z,77.50
2017-10-12T20:08:28.777Z,77.30
2017-10-12T20:10:59.189Z,78.30
2017-10-12T20:13:29.430Z,78.20
2017-10-12T20:16:00.578Z,79.20
2017-10-12T20:18:28.928Z,79.00
2017-10-12T20:20:57.343Z,80.70
2017-10-12T20:23:25.706Z,79.90
2017-10-12T20:25:54.063Z,79.90
2017-10-12T20:28:22.520Z,80.20
2017-10-12T20:30:50.827Z,80.10
2017-10-12T20:33:19.201Z,80.80
2017-10-12T20:35:49.161Z,79.60
2017-10-12T20:38:17.495Z,79.50
2017-10-12T20:40:45.890Z,79.10
2017-10-12T20:43:14.275Z,80.80
2017-10-12T20:45:42.642Z,79.70
2017-10-12T20:48:11.066Z,79.00
2017-10-12T20:50:39.594Z,81.10
2017-10-12T20:53:08.387Z,80.50
2017-10-12T20:55:36.783Z,81.40
2017-10-12T20:58:05.830Z,81.70
2017-10-12T21:00:34.133Z,81.50
2017-10-12T21:03:02.519Z,81.60
2017-10-12T21:05:30.928Z,82.30
2017-10-12T21:08:01.115Z,82.40
2017-10-12T21:10:29.369Z,82.30
2017-10-12T21:12:57.973Z,88.80
2017-10-12T21:15:26.209Z,85.90
2017-10-12T21:17:54.476Z,85.10
2017-10-12T21:20:23.514Z,86.10
2017-10-12T21:22:51.754Z,86.00
2017-10-12T21:25:19.999Z,84.10
2017-10-12T21:27:51.550Z,85.00
2017-10-12T21:30:20.566Z,86.00
2017-10-12T21:32:50.599Z,89.60
2017-10-12T21:35:20.142Z,89.50
2017-10-12T21:37:48.392Z,88.50
2017-10-12T21:40:16.815Z,86.40
2017-10-12T21:42:45.082Z,83.80
2017-10-12T21:45:13.566Z,83.70
2017-10-12T21:47:41.817Z,83.90
2017-10-12T21:50:10.853Z,84.20
2017-10-12T21:52:39.878Z,84.80
2017-10-12T21:55:08.473Z,84.80
2017-10-12T21:57:37.066Z,87.80
2017-10-12T22:00:05.310Z,87.80
2017-10-12T22:02:33.561Z,87.10
2017-10-12T22:05:02.019Z,86.20
2017-10-12T22:07:30.243Z,85.40
2017-10-12T22:09:59.251Z,87.30
2017-10-12T22:12:27.529Z,87.20
2017-10-12T22:14:55.786Z,85.70
2017-10-12T22:17:24.800Z,85.90
2017-10-12T22:19:53.270Z,85.90
2017-10-12T22:22:21.529Z,87.00
2017-10-12T22:24:50.713Z,85.80
2017-10-12T22:27:19.278Z,85.80
2017-10-12T22:29:47.508Z,87.20
2017-10-12T22:32:15.750Z,87.10
2017-10-12T22:34:44.018Z,87.70
2017-10-12T22:37:12.266Z,87.30
2017-10-12T22:39:40.510Z,87.40
2017-10-12T22:42:09.240Z,90.10
2017-10-12T22:44:37.624Z,89.50
2017-10-12T22:47:05.871Z,89.20
2017-10-12T22:49:34.135Z,88.20
2017-10-12T22:52:02.390Z,89.20
2017-10-12T22:54:30.634Z,90.60
2017-10-12T22:56:59.071Z,89.80
2017-10-12T22:59:27.314Z,90.30
2017-10-12T23:01:56.330Z,90.90
2017-10-12T23:04:24.843Z,90.90
2017-10-12T23:06:53.102Z,91.00
2017-10-12T23:09:21.373Z,91.70
2017-10-12T23:11:49.638Z,91.50
2017-10-12T23:14:17.886Z,91.60
2017-10-12T23:16:46.136Z,90.80
2017-10-12T23:19:14.445Z,89.20
2017-10-12T23:21:42.679Z,90.70
2017-10-12T23:24:10.973Z,89.80
2017-10-12T23:26:39.393Z,90.40
2017-10-12T23:29:07.642Z,90.80
2017-10-12T23:31:35.890Z,91.40
2017-10-12T23:34:04.166Z,90.00
2017-10-12T23:36:32.457Z,90.20
2017-10-12T23:39:00.682Z,90.70
2017-10-12T23:41:28.949Z,90.00
2017-10-12T23:43:57.972Z,90.30
2017-10-12T23:46:26.218Z,90.30
2017-10-12T23:48:54.746Z,91.10
2017-10-12T23:51:22.985Z,90.80
2017-10-12T23:53:51.996Z,90.40
2017-10-12T23:56:20.268Z,90.50
2017-10-12T23:58:48.893Z,90.60
